createdAt,value
2017-09-26T00:00:03.786Z,97164.89
2017-09-26T00:02:30.457Z,97165.22
2017-09-26T00:07:52.632Z,97166.80
2017-09-26T00:10:20.239Z,97174.77
2017-09-26T00:12:47.047Z,97174.27
2017-09-26T00:15:14.704Z,97171.25
2017-09-26T00:17:42.219Z,97172.61
2017-09-26T00:20:09.448Z,97169.33
2017-09-26T00:22:36.521Z,97166.91
2017-09-26T00:25:04.100Z,97166.02
2017-09-26T00:30:35.852Z,97165.19
2017-09-26T00:33:18.969Z,97166.91
2017-09-26T00:35:46.897Z,97168.36
2017-09-26T00:38:15.328Z,97166.39
2017-09-26T00:40:42.175Z,97164.09
2017-09-26T00:43:09.943Z,97167.64
2017-09-26T00:45:36.828Z,97167.95
2017-09-26T00:50:59.469Z,97166.88
2017-09-26T00:53:26.185Z,97162.50
2017-09-26T00:55:52.994Z,97166.05
2017-09-26T00:58:22.050Z,97160.16
2017-09-26T01:00:48.932Z,97156.94
2017-09-26T01:03:21.380Z,97162.38
2017-09-26T01:08:54.261Z,97158.80
2017-09-26T01:11:21.960Z,97154.50
2017-09-26T01:13:48.667Z,97156.84
2017-09-26T01:18:48.312Z,97166.15
2017-09-26T01:21:16.099Z,97162.55
2017-09-26T01:26:38.530Z,97167.63
2017-09-26T01:29:05.250Z,97162.22
2017-09-26T01:31:32.116Z,97165.08
2017-09-26T01:33:58.969Z,97169.55
2017-09-26T01:39:29.683Z,97167.05
2017-09-26T01:41:57.247Z,97166.70
2017-09-26T01:44:27.875Z,97171.63
2017-09-26T01:46:55.200Z,97166.11
2017-09-26T01:49:21.692Z,97172.87
2017-09-26T01:51:49.329Z,97164.48
2017-09-26T01:54:26.240Z,97176.77
2017-09-26T01:56:59.151Z,97181.52
2017-09-26T01:59:27.887Z,97180.81
2017-09-26T02:01:54.658Z,97186.57
2017-09-26T02:04:21.469Z,97182.55
2017-09-26T02:06:49.607Z,97180.27
2017-09-26T02:09:16.543Z,97181.11
2017-09-26T02:11:43.239Z,97175.38
2017-09-26T02:14:09.796Z,97178.56
2017-09-26T02:16:36.335Z,97176.02
2017-09-26T02:19:15.257Z,97166.48
2017-09-26T02:24:18.635Z,97170.80
2017-09-26T02:26:45.368Z,97175.09
2017-09-26T02:29:12.312Z,97179.60
2017-09-26T02:31:39.940Z,97175.13
2017-09-26T02:34:06.740Z,97178.09
2017-09-26T02:36:34.119Z,97176.05
2017-09-26T02:39:01.586Z,97179.53
2017-09-26T02:41:28.562Z,97173.86
2017-09-26T02:43:56.259Z,97172.92
2017-09-26T02:46:23.796Z,97180.47
2017-09-26T02:48:51.695Z,97178.19
2017-09-26T02:51:18.331Z,97175.11
2017-09-26T02:53:47.936Z,97174.19
2017-09-26T02:56:14.729Z,97169.88
2017-09-26T02:58:42.604Z,97184.04
2017-09-26T03:01:09.292Z,97182.41
2017-09-26T03:03:35.920Z,97179.79
2017-09-26T03:06:13.942Z,97180.59
2017-09-26T03:08:41.511Z,97186.78
2017-09-26T03:11:08.058Z,97183.38
2017-09-26T03:13:34.680Z,97186.19
2017-09-26T03:16:01.378Z,97189.31
2017-09-26T03:18:27.975Z,97193.97
2017-09-26T03:20:55.484Z,97192.36
2017-09-26T03:23:23.422Z,97193.89
2017-09-26T03:25:51.011Z,97197.33
2017-09-26T03:28:18.692Z,97195.16
2017-09-26T03:38:04.616Z,97203.72
2017-09-26T03:43:28.663Z,97202.30
2017-09-26T03:45:55.197Z,97199.47
2017-09-26T03:48:21.907Z,97205.39
2017-09-26T03:50:51.546Z,97201.66
2017-09-26T03:53:18.247Z,97206.38
2017-09-26T03:55:45.612Z,97206.86
2017-09-26T03:58:12.436Z,97206.15
2017-09-26T04:00:54.007Z,97207.88
2017-09-26T04:03:23.841Z,97205.66
2017-09-26T04:05:50.641Z,97203.20
2017-09-26T04:08:17.551Z,97207.64
2017-09-26T04:10:44.344Z,97203.41
2017-09-26T04:13:11.903Z,97199.94
2017-09-26T04:15:38.574Z,97202.59
2017-09-26T04:18:05.902Z,97202.88
2017-09-26T04:20:32.597Z,97200.50
2017-09-26T04:23:04.293Z,97201.66
2017-09-26T04:25:32.098Z,97204.71
2017-09-26T04:27:59.035Z,97206.66
2017-09-26T04:30:36.074Z,97202.03
2017-09-26T04:33:05.581Z,97208.58
2017-09-26T04:35:32.447Z,97209.42
2017-09-26T04:37:59.232Z,97215.72
2017-09-26T04:40:26.519Z,97214.69
2017-09-26T04:42:53.711Z,97208.45
2017-09-26T04:56:53.347Z,97215.55
2017-09-26T04:59:19.888Z,97200.47
2017-09-26T05:01:46.338Z,97218.66
2017-09-26T05:04:12.964Z,97220.50
2017-09-26T05:06:39.451Z,97188.73
2017-09-26T05:09:06.126Z,97229.09
2017-09-26T05:11:33.436Z,97223.11
2017-09-26T05:13:59.982Z,97229.92
2017-09-26T05:16:26.644Z,97226.89
2017-09-26T05:18:53.388Z,97227.79
2017-09-26T05:21:21.564Z,97234.63
2017-09-26T05:23:49.411Z,97237.34
2017-09-26T05:26:16.056Z,97237.59
2017-09-26T05:28:43.233Z,97233.10
2017-09-26T05:34:14.411Z,97232.88
2017-09-26T05:36:42.283Z,97236.60
2017-09-26T05:39:25.182Z,97239.31
2017-09-26T05:41:52.406Z,97238.92
2017-09-26T05:44:19.004Z,97240.23
2017-09-26T05:46:46.433Z,97246.59
2017-09-26T05:49:14.890Z,97245.61
2017-09-26T05:51:41.632Z,97248.45
2017-09-26T05:54:08.160Z,97247.48
2017-09-26T05:59:30.751Z,97251.14
2017-09-26T06:01:58.243Z,97249.53
2017-09-26T06:04:25.622Z,97238.02
2017-09-26T06:06:52.822Z,97253.33
2017-09-26T06:09:19.731Z,97257.42
2017-09-26T06:11:56.768Z,97254.98
2017-09-26T06:14:23.547Z,97256.09
2017-09-26T06:16:50.596Z,97261.59
2017-09-26T06:19:17.564Z,97258.14
2017-09-26T06:21:44.296Z,97261.93
2017-09-26T06:24:11.852Z,97260.70
2017-09-26T06:26:40.837Z,97263.76
2017-09-26T06:32:22.124Z,97278.61
2017-09-26T06:34:50.001Z,97281.97
2017-09-26T06:37:20.335Z,97287.21
2017-09-26T06:39:47.180Z,97289.45
2017-09-26T06:42:13.938Z,97296.20
2017-09-26T06:44:41.422Z,97290.16
2017-09-26T06:47:08.607Z,97286.25
2017-09-26T06:52:36.829Z,97286.59
2017-09-26T06:55:03.569Z,97292.50
2017-09-26T07:00:27.730Z,97286.43
2017-09-26T07:02:54.648Z,97291.11
2017-09-26T07:05:21.930Z,97291.98
2017-09-26T07:07:48.561Z,97294.48
2017-09-26T07:10:16.020Z,97294.22
2017-09-26T07:12:42.545Z,97290.70
2017-09-26T07:15:09.112Z,97288.37
2017-09-26T07:17:40.593Z,97292.88
2017-09-26T07:20:08.192Z,97296.72
2017-09-26T07:22:34.916Z,97268.36
2017-09-26T07:25:01.625Z,97299.69
2017-09-26T07:27:29.979Z,97302.45
2017-09-26T07:29:56.752Z,97297.59
2017-09-26T07:32:24.257Z,97298.56
2017-09-26T07:34:50.813Z,97297.58
2017-09-26T07:37:17.395Z,97290.64
2017-09-26T08:25:22.851Z,97322.40
2017-09-26T08:27:50.360Z,97324.94
2017-09-26T08:30:17.023Z,97318.33
2017-09-26T08:35:42.210Z,97312.83
2017-09-26T08:38:11.524Z,97316.52
2017-09-26T08:40:38.336Z,97315.57
2017-09-26T08:43:06.768Z,97317.64
2017-09-26T08:45:34.568Z,97312.83
2017-09-26T08:48:02.082Z,97308.25
2017-09-26T08:50:29.541Z,97313.38
2017-09-26T09:04:47.229Z,97305.12
2017-09-26T09:07:14.278Z,97307.09
2017-09-26T09:12:41.252Z,97310.36
2017-09-26T09:15:18.765Z,97307.61
2017-09-26T09:17:46.329Z,97308.80
2017-09-26T09:20:13.784Z,97309.86
2017-09-26T09:22:43.644Z,97312.90
2017-09-26T09:25:11.160Z,97308.30
2017-09-26T09:27:38.555Z,97307.40
2017-09-26T09:30:05.174Z,97305.02
2017-09-26T09:32:32.573Z,97305.84
2017-09-26T09:34:59.033Z,97306.05
2017-09-26T09:37:26.208Z,97304.84
2017-09-26T09:39:52.896Z,97304.91
2017-09-26T09:42:20.376Z,97299.11
2017-09-26T09:44:47.738Z,97272.75
2017-09-26T09:47:14.295Z,97293.39
2017-09-26T09:49:42.959Z,97291.09
2017-09-26T09:52:10.443Z,97292.65
2017-09-26T10:06:04.474Z,97281.95
2017-09-26T10:08:30.965Z,97282.81
2017-09-26T10:26:28.656Z,97265.33
2017-09-26T10:28:56.299Z,97271.49
2017-09-26T10:31:22.899Z,97271.41
2017-09-26T10:33:49.508Z,97268.60
2017-09-26T10:38:48.770Z,97264.66
2017-09-26T10:41:15.272Z,97270.89
2017-09-26T10:43:42.603Z,97266.48
2017-09-26T10:57:19.228Z,97260.89
2017-09-26T10:59:46.742Z,97259.77
2017-09-26T11:02:13.137Z,97261.33
2017-09-26T11:04:41.162Z,97258.22
2017-09-26T11:07:07.748Z,97261.98
2017-09-26T11:09:35.044Z,97261.95
2017-09-26T11:12:01.516Z,97265.23
2017-09-26T11:14:29.096Z,97260.13
2017-09-26T11:16:56.510Z,97263.61
2017-09-26T11:19:23.344Z,97256.25
2017-09-26T11:21:49.828Z,97258.42
2017-09-26T11:27:15.108Z,97244.53
2017-09-26T11:29:41.681Z,97255.38
2017-09-26T11:32:08.132Z,97257.74
2017-09-26T11:34:35.364Z,97258.98
2017-09-26T11:39:58.548Z,97248.84
2017-09-26T11:57:42.367Z,97236.06
2017-09-26T12:00:08.924Z,97231.20
2017-09-26T12:08:04.448Z,97214.31
2017-09-26T12:10:32.224Z,97212.24
2017-09-26T12:13:08.055Z,97218.28
2017-09-26T12:15:34.499Z,97218.63
2017-09-26T12:18:01.116Z,97218.98
2017-09-26T12:20:37.977Z,97222.89
2017-09-26T12:23:06.023Z,97219.45
2017-09-26T12:25:34.594Z,97220.27
2017-09-26T12:30:44.249Z,97218.50
2017-09-26T12:33:12.912Z,97211.95
2017-09-26T12:35:39.727Z,97211.05
2017-09-26T12:53:23.351Z,97195.11
2017-09-26T12:55:50.063Z,97191.30
2017-09-26T13:01:00.944Z,97186.45
2017-09-26T13:03:28.323Z,97192.11
2017-09-26T13:05:54.901Z,97188.11
2017-09-26T13:08:21.439Z,97191.18
2017-09-26T13:10:48.267Z,97192.60
2017-09-26T13:13:15.969Z,97187.76
2017-09-26T13:15:43.281Z,97189.27
2017-09-26T13:18:10.148Z,97194.66
2017-09-26T13:20:36.576Z,97188.38
2017-09-26T13:23:09.552Z,97187.15
2017-09-26T13:25:46.118Z,97188.98
2017-09-26T13:28:13.991Z,97194.52
2017-09-26T13:30:44.188Z,97197.77
2017-09-26T13:33:11.221Z,97194.28
2017-09-26T13:35:38.211Z,97198.02
2017-09-26T13:38:16.060Z,97204.27
2017-09-26T13:40:43.367Z,97198.84
2017-09-26T13:43:11.039Z,97140.70
2017-09-26T13:45:37.698Z,97203.98
2017-09-26T13:48:06.996Z,97195.87
2017-09-26T13:50:34.552Z,97204.02
2017-09-26T13:53:01.336Z,97206.55
2017-09-26T13:55:27.689Z,97206.86
2017-09-26T13:57:55.887Z,97206.59
2017-09-26T14:00:22.739Z,97198.88
2017-09-26T14:02:52.292Z,97205.92
2017-09-26T14:05:18.861Z,97186.88
2017-09-26T14:07:45.441Z,97216.70
2017-09-26T14:10:13.396Z,97216.17
2017-09-26T14:12:40.573Z,97210.27
2017-09-26T14:15:08.722Z,97214.42
2017-09-26T14:17:36.497Z,97209.00
2017-09-26T14:20:03.734Z,97217.25
2017-09-26T14:25:24.663Z,97210.47
2017-09-26T14:30:48.480Z,97211.06
2017-09-26T14:33:15.190Z,97209.42
2017-09-26T14:35:55.356Z,97211.60
2017-09-26T14:38:24.772Z,97211.55
2017-09-26T14:40:51.346Z,97214.72
2017-09-26T14:43:18.745Z,97216.55
2017-09-26T14:45:46.162Z,97199.08
2017-09-26T14:48:12.812Z,97214.86
2017-09-26T14:50:40.079Z,97216.02
2017-09-26T14:56:07.777Z,97219.67
2017-09-26T14:58:34.331Z,97215.77
2017-09-26T15:01:03.687Z,97220.96
2017-09-26T15:03:30.244Z,97224.15
2017-09-26T15:05:57.699Z,97222.62
2017-09-26T15:08:25.080Z,97223.84
2017-09-26T15:10:52.066Z,97227.98
2017-09-26T15:13:18.803Z,97226.17
2017-09-26T15:15:55.493Z,97229.59
2017-09-26T15:18:22.251Z,97228.25
2017-09-26T15:23:58.259Z,97233.01
2017-09-26T15:29:05.701Z,97233.34
2017-09-26T15:31:32.510Z,97239.36
2017-09-26T15:34:01.008Z,97242.91
2017-09-26T15:36:28.508Z,97239.80
2017-09-26T15:38:55.232Z,97238.73
2017-09-26T15:41:21.924Z,97241.33
2017-09-26T15:43:49.236Z,97244.14
2017-09-26T15:46:16.904Z,97230.02
2017-09-26T15:48:45.336Z,97241.22
2017-09-26T15:51:12.866Z,97244.52
2017-09-26T15:53:39.575Z,97243.00
2017-09-26T15:56:06.153Z,97238.98
2017-09-26T15:58:35.816Z,97240.36
2017-09-26T16:05:50.790Z,97250.16
2017-09-26T16:08:17.521Z,97251.16
2017-09-26T16:10:45.161Z,97234.03
2017-09-26T16:13:11.885Z,97251.21
2017-09-26T16:15:38.452Z,97256.66
2017-09-26T16:35:31.138Z,97262.92
2017-09-26T16:37:57.876Z,97269.19
2017-09-26T16:40:24.340Z,97266.61
2017-09-26T16:42:51.811Z,97270.28
2017-09-26T16:45:19.355Z,97274.72
2017-09-26T16:47:49.788Z,97273.01
2017-09-26T16:50:16.412Z,97273.60
2017-09-26T16:52:43.884Z,97278.80
2017-09-26T16:55:11.294Z,97284.69
2017-09-26T17:00:13.716Z,97283.14
2017-09-26T17:02:40.635Z,97291.78
2017-09-26T17:05:07.387Z,97289.16
2017-09-26T17:07:35.587Z,97291.61
2017-09-26T17:45:49.760Z,97337.81
2017-09-26T17:48:18.260Z,97344.67
2017-09-26T17:50:46.181Z,97344.06
2017-09-26T17:53:13.044Z,97345.35
2017-09-26T17:55:44.640Z,97342.52
2017-09-26T18:01:05.626Z,97348.30
2017-09-26T18:03:47.263Z,97360.19
2017-09-26T18:06:14.077Z,97354.11
2017-09-26T18:08:41.398Z,97360.37
2017-09-26T18:16:55.983Z,97361.14
2017-09-26T18:22:18.221Z,97365.41
2017-09-26T18:24:45.611Z,97371.21
2017-09-26T18:27:12.364Z,97369.41
2017-09-26T18:33:13.314Z,97374.81
2017-09-26T18:35:40.103Z,97375.59
2017-09-26T18:41:00.887Z,97371.63
2017-09-26T18:43:28.395Z,97374.08
2017-09-26T18:45:55.220Z,97373.48
2017-09-26T18:48:22.209Z,97372.19
2017-09-26T18:50:50.794Z,97379.27
2017-09-26T18:53:32.631Z,97380.33
2017-09-26T18:55:59.121Z,97384.00
2017-09-26T18:58:25.650Z,97373.06
2017-09-26T19:00:52.310Z,97385.81
2017-09-26T19:03:20.628Z,97381.80
2017-09-26T19:05:49.374Z,97388.16
2017-09-26T19:08:16.122Z,97385.84
2017-09-26T19:10:57.754Z,97387.70
2017-09-26T19:13:25.800Z,97389.36
2017-09-26T19:15:52.604Z,97389.10
2017-09-26T19:18:19.175Z,97393.30
2017-09-26T19:23:42.932Z,97394.05
2017-09-26T19:26:13.840Z,97400.25
2017-09-26T19:28:41.111Z,97406.98
2017-09-26T19:31:07.795Z,97403.28
2017-09-26T19:33:38.331Z,97402.87
2017-09-26T19:36:05.839Z,97404.33
2017-09-26T19:38:47.654Z,97408.86
2017-09-26T19:41:14.283Z,97406.09
2017-09-26T19:43:42.077Z,97407.35
2017-09-26T20:00:18.303Z,97409.14
